sensor_id;sensor_type;location;lat;lon;timestamp;P1;durP1;ratioP1;P2;durP2;ratioP2
54271;SDS011;40184;53.362;5.216;2023-06-10T00:02:26;20.33;;;8.77;;
54271;SDS011;40184;53.362;5.216;2023-06-10T00:04:52;19.52;;;7.45;;
54271;SDS011;40184;53.362;5.216;2023-06-10T00:07:18;17.25;;;8.68;;
54271;SDS011;40184;53.362;5.216;2023-06-10T00:09:44;21.02;;;8.20;;
54271;SDS011;40184;53.362;5.216;2023-06-10T00:12:11;21.63;;;8.30;;
54271;SDS011;40184;53.362;5.216;2023-06-10T00:14:37;19.17;;;8.63;;
54271;SDS011;40184;53.362;5.216;2023-06-10T00:17:04;17.15;;;7.18;;
54271;SDS011;40184;53.362;5.216;2023-06-10T00:19:30;20.65;;;8.07;;
54271;SDS011;40184;53.362;5.216;2023-06-10T00:21:56;16.58;;;7.90;;
54271;SDS011;40184;53.362;5.216;2023-06-10T00:24:23;12.82;;;6.93;;
54271;SDS011;40184;53.362;5.216;2023-06-10T00:26:49;20.58;;;7.95;;
54271;SDS011;40184;53.362;5.216;2023-06-10T00:29:15;18.65;;;7.00;;
54271;SDS011;40184;53.362;5.216;2023-06-10T00:31:42;15.23;;;7.30;;
54271;SDS011;40184;53.362;5.216;2023-06-10T00:34:08;13.95;;;7.00;;
54271;SDS011;40184;53.362;5.216;2023-06-10T00:36:34;18.85;;;7.35;;
54271;SDS011;40184;53.362;5.216;2023-06-10T00:39:01;24.33;;;7.25;;
54271;SDS011;40184;53.362;5.216;2023-06-10T00:41:27;10.93;;;6.55;;
54271;SDS011;40184;53.362;5.216;2023-06-10T00:43:54;21.50;;;8.00;;
54271;SDS011;40184;53.362;5.216;2023-06-10T00:46:23;13.57;;;7.18;;
54271;SDS011;40184;53.362;5.216;2023-06-10T00:48:51;15.13;;;6.22;;
54271;SDS011;40184;53.362;5.216;2023-06-10T00:51:18;13.50;;;6.72;;
54271;SDS011;40184;53.362;5.216;2023-06-10T00:53:44;19.52;;;7.68;;
54271;SDS011;40184;53.362;5.216;2023-06-10T00:56:10;16.83;;;7.20;;
54271;SDS011;40184;53.362;5.216;2023-06-10T00:58:36;22.50;;;7.75;;
54271;SDS011;40184;53.362;5.216;2023-06-10T01:01:03;11.52;;;6.72;;
54271;SDS011;40184;53.362;5.216;2023-06-10T01:03:29;14.05;;;6.15;;
54271;SDS011;40184;53.362;5.216;2023-06-10T01:05:59;16.38;;;6.80;;
54271;SDS011;40184;53.362;5.216;2023-06-10T01:08:39;13.37;;;7.20;;
54271;SDS011;40184;53.362;5.216;2023-06-10T01:11:07;17.73;;;7.03;;
54271;SDS011;40184;53.362;5.216;2023-06-10T01:13:35;12.63;;;6.25;;
54271;SDS011;40184;53.362;5.216;2023-06-10T01:16:01;17.67;;;7.38;;
54271;SDS011;40184;53.362;5.216;2023-06-10T01:18:31;12.18;;;6.75;;
54271;SDS011;40184;53.362;5.216;2023-06-10T01:20:57;10.45;;;6.82;;
54271;SDS011;40184;53.362;5.216;2023-06-10T01:23:23;13.65;;;5.93;;
54271;SDS011;40184;53.362;5.216;2023-06-10T01:25:53;11.73;;;5.63;;
54271;SDS011;40184;53.362;5.216;2023-06-10T01:33:27;11.63;;;6.25;;
54271;SDS011;40184;53.362;5.216;2023-06-10T01:35:53;13.10;;;6.55;;
54271;SDS011;40184;53.362;5.216;2023-06-10T01:38:21;14.32;;;7.13;;
54271;SDS011;40184;53.362;5.216;2023-06-10T01:40:49;12.65;;;5.82;;
54271;SDS011;40184;53.362;5.216;2023-06-10T01:43:15;9.45;;;6.00;;
54271;SDS011;40184;53.362;5.216;2023-06-10T01:45:41;14.93;;;6.47;;
54271;SDS011;40184;53.362;5.216;2023-06-10T01:48:07;7.70;;;6.03;;
54271;SDS011;40184;53.362;5.216;2023-06-10T01:50:33;8.73;;;5.38;;
54271;SDS011;40184;53.362;5.216;2023-06-10T01:52:59;10.10;;;5.70;;
54271;SDS011;40184;53.362;5.216;2023-06-10T01:55:25;15.27;;;7.68;;
54271;SDS011;40184;53.362;5.216;2023-06-10T01:57:51;10.55;;;5.68;;
54271;SDS011;40184;53.362;5.216;2023-06-10T02:00:17;13.30;;;6.10;;
54271;SDS011;40184;53.362;5.216;2023-06-10T02:02:43;10.25;;;6.05;;
54271;SDS011;40184;53.362;5.216;2023-06-10T02:05:09;13.80;;;6.10;;
54271;SDS011;40184;53.362;5.216;2023-06-10T02:07:35;14.10;;;6.05;;
54271;SDS011;40184;53.362;5.216;2023-06-10T02:10:03;10.07;;;5.63;;
54271;SDS011;40184;53.362;5.216;2023-06-10T02:12:29;13.27;;;6.30;;
54271;SDS011;40184;53.362;5.216;2023-06-10T02:14:55;15.05;;;5.85;;
54271;SDS011;40184;53.362;5.216;2023-06-10T02:17:21;13.73;;;5.95;;
54271;SDS011;40184;53.362;5.216;2023-06-10T02:19:48;12.48;;;6.75;;
54271;SDS011;40184;53.362;5.216;2023-06-10T02:22:19;12.65;;;6.72;;
54271;SDS011;40184;53.362;5.216;2023-06-10T02:24:46;9.05;;;5.82;;
54271;SDS011;40184;53.362;5.216;2023-06-10T02:27:12;11.65;;;5.35;;
54271;SDS011;40184;53.362;5.216;2023-06-10T02:29:38;7.57;;;5.15;;
54271;SDS011;40184;53.362;5.216;2023-06-10T02:32:06;16.50;;;5.85;;
54271;SDS011;40184;53.362;5.216;2023-06-10T02:34:32;8.85;;;5.45;;
54271;SDS011;40184;53.362;5.216;2023-06-10T02:36:59;13.38;;;6.35;;
54271;SDS011;40184;53.362;5.216;2023-06-10T02:39:26;10.13;;;5.95;;
54271;SDS011;40184;53.362;5.216;2023-06-10T02:41:52;11.45;;;5.53;;
54271;SDS011;40184;53.362;5.216;2023-06-10T02:44:18;10.93;;;5.57;;
54271;SDS011;40184;53.362;5.216;2023-06-10T02:46:44;9.40;;;5.40;;
54271;SDS011;40184;53.362;5.216;2023-06-10T02:49:11;15.07;;;5.40;;
54271;SDS011;40184;53.362;5.216;2023-06-10T02:51:37;9.52;;;5.55;;
54271;SDS011;40184;53.362;5.216;2023-06-10T02:54:03;9.40;;;5.97;;
54271;SDS011;40184;53.362;5.216;2023-06-10T02:56:30;8.98;;;5.38;;
54271;SDS011;40184;53.362;5.216;2023-06-10T02:58:58;14.75;;;5.95;;
54271;SDS011;40184;53.362;5.216;2023-06-10T03:01:24;12.15;;;6.90;;
54271;SDS011;40184;53.362;5.216;2023-06-10T03:03:50;12.90;;;6.65;;
54271;SDS011;40184;53.362;5.216;2023-06-10T03:06:17;15.18;;;8.02;;
54271;SDS011;40184;53.362;5.216;2023-06-10T03:08:44;14.00;;;8.15;;
54271;SDS011;40184;53.362;5.216;2023-06-10T03:11:13;9.38;;;6.82;;
54271;SDS011;40184;53.362;5.216;2023-06-10T03:13:39;16.77;;;8.40;;
54271;SDS011;40184;53.362;5.216;2023-06-10T03:16:05;14.10;;;7.53;;
54271;SDS011;40184;53.362;5.216;2023-06-10T03:18:32;20.17;;;7.75;;
54271;SDS011;40184;53.362;5.216;2023-06-10T03:20:59;11.60;;;6.95;;
54271;SDS011;40184;53.362;5.216;2023-06-10T03:23:25;13.88;;;7.93;;
54271;SDS011;40184;53.362;5.216;2023-06-10T03:25:52;10.40;;;7.35;;
54271;SDS011;40184;53.362;5.216;2023-06-10T03:28:19;19.20;;;7.68;;
54271;SDS011;40184;53.362;5.216;2023-06-10T03:30:46;14.95;;;6.93;;
54271;SDS011;40184;53.362;5.216;2023-06-10T03:33:12;14.50;;;7.57;;
54271;SDS011;40184;53.362;5.216;2023-06-10T03:35:39;15.75;;;7.20;;
54271;SDS011;40184;53.362;5.216;2023-06-10T03:38:05;9.52;;;7.38;;
54271;SDS011;40184;53.362;5.216;2023-06-10T03:40:31;11.18;;;7.65;;
54271;SDS011;40184;53.362;5.216;2023-06-10T03:42:57;15.38;;;8.13;;
54271;SDS011;40184;53.362;5.216;2023-06-10T03:45:24;11.55;;;7.15;;
54271;SDS011;40184;53.362;5.216;2023-06-10T03:47:53;12.50;;;7.88;;
54271;SDS011;40184;53.362;5.216;2023-06-10T03:50:19;14.77;;;6.88;;
54271;SDS011;40184;53.362;5.216;2023-06-10T03:52:45;12.68;;;7.28;;
54271;SDS011;40184;53.362;5.216;2023-06-10T03:55:12;11.82;;;6.60;;
54271;SDS011;40184;53.362;5.216;2023-06-10T03:57:38;11.57;;;6.45;;
54271;SDS011;40184;53.362;5.216;2023-06-10T04:00:06;11.13;;;6.90;;
54271;SDS011;40184;53.362;5.216;2023-06-10T04:02:36;10.93;;;7.05;;
54271;SDS011;40184;53.362;5.216;2023-06-10T04:05:02;11.98;;;6.63;;
54271;SDS011;40184;53.362;5.216;2023-06-10T04:07:29;10.85;;;6.40;;
54271;SDS011;40184;53.362;5.216;2023-06-10T04:09:56;10.85;;;6.45;;
54271;SDS011;40184;53.362;5.216;2023-06-10T04:12:22;12.70;;;6.75;;
54271;SDS011;40184;53.362;5.216;2023-06-10T04:14:48;9.23;;;5.97;;
54271;SDS011;40184;53.362;5.216;2023-06-10T04:17:14;11.80;;;5.30;;
54271;SDS011;40184;53.362;5.216;2023-06-10T04:19:40;13.40;;;6.05;;
54271;SDS011;40184;53.362;5.216;2023-06-10T04:22:06;13.02;;;7.05;;
54271;SDS011;40184;53.362;5.216;2023-06-10T04:24:32;14.35;;;6.38;;
54271;SDS011;40184;53.362;5.216;2023-06-10T04:26:58;12.25;;;6.18;;
54271;SDS011;40184;53.362;5.216;2023-06-10T04:29:25;9.07;;;6.13;;
54271;SDS011;40184;53.362;5.216;2023-06-10T04:31:51;18.75;;;6.43;;
54271;SDS011;40184;53.362;5.216;2023-06-10T04:34:17;15.95;;;7.05;;
54271;SDS011;40184;53.362;5.216;2023-06-10T04:36:43;13.38;;;7.15;;
54271;SDS011;40184;53.362;5.216;2023-06-10T04:39:09;9.55;;;6.40;;
54271;SDS011;40184;53.362;5.216;2023-06-10T04:41:35;16.33;;;7.40;;
54271;SDS011;40184;53.362;5.216;2023-06-10T04:44:02;11.15;;;6.40;;
54271;SDS011;40184;53.362;5.216;2023-06-10T04:46:28;11.18;;;6.38;;
54271;SDS011;40184;53.362;5.216;2023-06-10T04:48:55;13.60;;;6.70;;
54271;SDS011;40184;53.362;5.216;2023-06-10T04:51:22;14.77;;;6.35;;
54271;SDS011;40184;53.362;5.216;2023-06-10T04:53:48;13.73;;;6.32;;
54271;SDS011;40184;53.362;5.216;2023-06-10T04:56:14;15.88;;;6.65;;
54271;SDS011;40184;53.362;5.216;2023-06-10T04:58:41;14.70;;;7.78;;
54271;SDS011;40184;53.362;5.216;2023-06-10T05:01:07;15.48;;;6.25;;
54271;SDS011;40184;53.362;5.216;2023-06-10T05:03:33;15.07;;;6.95;;
54271;SDS011;40184;53.362;5.216;2023-06-10T05:05:59;14.73;;;6.15;;
54271;SDS011;40184;53.362;5.216;2023-06-10T05:08:25;17.15;;;7.05;;
54271;SDS011;40184;53.362;5.216;2023-06-10T05:10:52;12.23;;;6.45;;
54271;SDS011;40184;53.362;5.216;2023-06-10T05:13:18;13.13;;;6.43;;
54271;SDS011;40184;53.362;5.216;2023-06-10T05:15:44;12.95;;;6.85;;
54271;SDS011;40184;53.362;5.216;2023-06-10T05:18:11;21.83;;;7.65;;
54271;SDS011;40184;53.362;5.216;2023-06-10T05:20:37;12.75;;;6.57;;
54271;SDS011;40184;53.362;5.216;2023-06-10T05:23:04;19.60;;;6.90;;
54271;SDS011;40184;53.362;5.216;2023-06-10T05:25:30;13.05;;;6.38;;
54271;SDS011;40184;53.362;5.216;2023-06-10T05:27:57;15.98;;;6.85;;
54271;SDS011;40184;53.362;5.216;2023-06-10T05:30:23;14.38;;;6.28;;
54271;SDS011;40184;53.362;5.216;2023-06-10T05:32:51;11.80;;;5.90;;
54271;SDS011;40184;53.362;5.216;2023-06-10T05:35:17;18.15;;;6.82;;
54271;SDS011;40184;53.362;5.216;2023-06-10T05:37:44;11.70;;;5.95;;
54271;SDS011;40184;53.362;5.216;2023-06-10T05:40:10;11.80;;;5.63;;
54271;SDS011;40184;53.362;5.216;2023-06-10T05:42:36;16.88;;;5.20;;
54271;SDS011;40184;53.362;5.216;2023-06-10T05:45:03;13.10;;;5.43;;
54271;SDS011;40184;53.362;5.216;2023-06-10T05:47:29;15.15;;;6.07;;
54271;SDS011;40184;53.362;5.216;2023-06-10T05:49:55;15.73;;;5.90;;
54271;SDS011;40184;53.362;5.216;2023-06-10T05:52:21;12.30;;;5.97;;
54271;SDS011;40184;53.362;5.216;2023-06-10T05:54:48;16.08;;;5.57;;
54271;SDS011;40184;53.362;5.216;2023-06-10T05:57:14;12.38;;;6.13;;
54271;SDS011;40184;53.362;5.216;2023-06-10T05:59:40;15.60;;;5.97;;
54271;SDS011;40184;53.362;5.216;2023-06-10T06:02:07;10.00;;;4.95;;
54271;SDS011;40184;53.362;5.216;2023-06-10T06:04:33;18.55;;;6.88;;
54271;SDS011;40184;53.362;5.216;2023-06-10T06:06:59;12.10;;;5.18;;
54271;SDS011;40184;53.362;5.216;2023-06-10T06:09:26;14.38;;;5.82;;
54271;SDS011;40184;53.362;5.216;2023-06-10T06:11:52;13.88;;;5.60;;
54271;SDS011;40184;53.362;5.216;2023-06-10T06:14:18;14.20;;;5.72;;
54271;SDS011;40184;53.362;5.216;2023-06-10T06:16:44;11.80;;;5.78;;
54271;SDS011;40184;53.362;5.216;2023-06-10T06:19:10;16.85;;;6.03;;
54271;SDS011;40184;53.362;5.216;2023-06-10T06:21:36;10.98;;;5.47;;
54271;SDS011;40184;53.362;5.216;2023-06-10T06:24:02;13.77;;;5.40;;
54271;SDS011;40184;53.362;5.216;2023-06-10T06:26:28;13.57;;;6.38;;
54271;SDS011;40184;53.362;5.216;2023-06-10T06:28:55;10.32;;;5.47;;
54271;SDS011;40184;53.362;5.216;2023-06-10T06:31:21;14.23;;;6.35;;
54271;SDS011;40184;53.362;5.216;2023-06-10T06:33:47;13.35;;;5.93;;
54271;SDS011;40184;53.362;5.216;2023-06-10T06:36:13;10.25;;;5.60;;
54271;SDS011;40184;53.362;5.216;2023-06-10T06:38:39;12.00;;;5.57;;
54271;SDS011;40184;53.362;5.216;2023-06-10T06:41:05;16.40;;;5.75;;
54271;SDS011;40184;53.362;5.216;2023-06-10T06:43:31;11.70;;;5.90;;
54271;SDS011;40184;53.362;5.216;2023-06-10T06:45:58;18.75;;;6.07;;
54271;SDS011;40184;53.362;5.216;2023-06-10T06:48:24;11.80;;;6.03;;
54271;SDS011;40184;53.362;5.216;2023-06-10T06:50:50;10.32;;;5.72;;
54271;SDS011;40184;53.362;5.216;2023-06-10T06:53:16;13.85;;;5.88;;
54271;SDS011;40184;53.362;5.216;2023-06-10T06:55:42;11.02;;;6.00;;
54271;SDS011;40184;53.362;5.216;2023-06-10T06:58:08;12.38;;;6.95;;
54271;SDS011;40184;53.362;5.216;2023-06-10T07:00:34;15.32;;;6.82;;
54271;SDS011;40184;53.362;5.216;2023-06-10T07:03:01;15.20;;;5.95;;
54271;SDS011;40184;53.362;5.216;2023-06-10T07:05:27;10.15;;;5.82;;
54271;SDS011;40184;53.362;5.216;2023-06-10T07:07:53;32.35;;;7.20;;
54271;SDS011;40184;53.362;5.216;2023-06-10T07:10:24;15.90;;;5.43;;
54271;SDS011;40184;53.362;5.216;2023-06-10T07:12:51;12.48;;;5.85;;
54271;SDS011;40184;53.362;5.216;2023-06-10T07:15:17;11.50;;;5.80;;
54271;SDS011;40184;53.362;5.216;2023-06-10T07:17:43;14.30;;;6.07;;
54271;SDS011;40184;53.362;5.216;2023-06-10T07:20:09;11.55;;;5.93;;
54271;SDS011;40184;53.362;5.216;2023-06-10T07:22:36;10.65;;;5.88;;
54271;SDS011;40184;53.362;5.216;2023-06-10T07:25:04;14.00;;;5.78;;
54271;SDS011;40184;53.362;5.216;2023-06-10T07:27:30;12.57;;;6.30;;
54271;SDS011;40184;53.362;5.216;2023-06-10T07:29:56;12.05;;;5.00;;
54271;SDS011;40184;53.362;5.216;2023-06-10T07:32:23;11.55;;;5.55;;
54271;SDS011;40184;53.362;5.216;2023-06-10T07:34:50;14.02;;;6.15;;
54271;SDS011;40184;53.362;5.216;2023-06-10T07:37:16;15.45;;;6.10;;
54271;SDS011;40184;53.362;5.216;2023-06-10T07:39:42;9.48;;;5.97;;
54271;SDS011;40184;53.362;5.216;2023-06-10T07:42:08;13.18;;;6.32;;
54271;SDS011;40184;53.362;5.216;2023-06-10T07:44:35;11.00;;;5.88;;
54271;SDS011;40184;53.362;5.216;2023-06-10T07:47:01;12.10;;;5.85;;
54271;SDS011;40184;53.362;5.216;2023-06-10T07:49:27;15.25;;;6.13;;
54271;SDS011;40184;53.362;5.216;2023-06-10T07:51:56;11.57;;;6.07;;
54271;SDS011;40184;53.362;5.216;2023-06-10T07:54:22;11.32;;;6.10;;
54271;SDS011;40184;53.362;5.216;2023-06-10T07:56:48;12.65;;;5.85;;
54271;SDS011;40184;53.362;5.216;2023-06-10T07:59:17;13.27;;;6.07;;
54271;SDS011;40184;53.362;5.216;2023-06-10T08:01:43;16.70;;;5.95;;
54271;SDS011;40184;53.362;5.216;2023-06-10T08:04:09;9.18;;;5.78;;
54271;SDS011;40184;53.362;5.216;2023-06-10T08:06:35;12.63;;;6.72;;
54271;SDS011;40184;53.362;5.216;2023-06-10T08:09:02;14.85;;;5.82;;
54271;SDS011;40184;53.362;5.216;2023-06-10T08:11:28;14.80;;;5.95;;
54271;SDS011;40184;53.362;5.216;2023-06-10T08:13:55;10.25;;;5.90;;
54271;SDS011;40184;53.362;5.216;2023-06-10T08:16:21;11.40;;;6.20;;
54271;SDS011;40184;53.362;5.216;2023-06-10T08:18:47;11.95;;;5.38;;
54271;SDS011;40184;53.362;5.216;2023-06-10T08:21:15;9.45;;;5.22;;
54271;SDS011;40184;53.362;5.216;2023-06-10T08:23:41;8.52;;;5.53;;
54271;SDS011;40184;53.362;5.216;2023-06-10T08:26:09;14.55;;;6.13;;
54271;SDS011;40184;53.362;5.216;2023-06-10T08:28:35;10.88;;;6.30;;
54271;SDS011;40184;53.362;5.216;2023-06-10T08:31:01;13.50;;;5.97;;
54271;SDS011;40184;53.362;5.216;2023-06-10T08:33:27;12.43;;;6.00;;
54271;SDS011;40184;53.362;5.216;2023-06-10T08:35:53;12.32;;;5.88;;
54271;SDS011;40184;53.362;5.216;2023-06-10T08:38:19;8.40;;;5.47;;
54271;SDS011;40184;53.362;5.216;2023-06-10T08:40:45;13.77;;;6.05;;
54271;SDS011;40184;53.362;5.216;2023-06-10T08:45:57;9.65;;;5.40;;
54271;SDS011;40184;53.362;5.216;2023-06-10T08:48:26;11.65;;;6.05;;
54271;SDS011;40184;53.362;5.216;2023-06-10T08:50:52;13.35;;;5.15;;
54271;SDS011;40184;53.362;5.216;2023-06-10T08:53:20;13.75;;;6.45;;
54271;SDS011;40184;53.362;5.216;2023-06-10T08:55:49;10.60;;;4.93;;
54271;SDS011;40184;53.362;5.216;2023-06-10T08:58:17;11.30;;;5.70;;
54271;SDS011;40184;53.362;5.216;2023-06-10T09:00:44;11.00;;;5.20;;
54271;SDS011;40184;53.362;5.216;2023-06-10T09:03:10;11.18;;;5.18;;
54271;SDS011;40184;53.362;5.216;2023-06-10T09:05:37;14.70;;;5.28;;
54271;SDS011;40184;53.362;5.216;2023-06-10T09:08:04;12.38;;;5.22;;
54271;SDS011;40184;53.362;5.216;2023-06-10T09:10:32;9.70;;;5.68;;
54271;SDS011;40184;53.362;5.216;2023-06-10T09:12:58;6.78;;;4.55;;
54271;SDS011;40184;53.362;5.216;2023-06-10T09:15:24;10.40;;;5.20;;
54271;SDS011;40184;53.362;5.216;2023-06-10T09:17:50;10.82;;;4.85;;
54271;SDS011;40184;53.362;5.216;2023-06-10T09:20:16;9.90;;;4.68;;
54271;SDS011;40184;53.362;5.216;2023-06-10T09:22:43;10.82;;;4.95;;
54271;SDS011;40184;53.362;5.216;2023-06-10T09:25:11;9.65;;;5.15;;
54271;SDS011;40184;53.362;5.216;2023-06-10T09:27:50;7.72;;;4.70;;
54271;SDS011;40184;53.362;5.216;2023-06-10T09:30:28;13.23;;;5.07;;
54271;SDS011;40184;53.362;5.216;2023-06-10T09:32:55;9.57;;;4.22;;
54271;SDS011;40184;53.362;5.216;2023-06-10T09:35:22;12.25;;;4.40;;
54271;SDS011;40184;53.362;5.216;2023-06-10T09:37:49;8.85;;;4.63;;
54271;SDS011;40184;53.362;5.216;2023-06-10T09:40:16;18.23;;;5.68;;
54271;SDS011;40184;53.362;5.216;2023-06-10T09:42:42;10.50;;;4.70;;
54271;SDS011;40184;53.362;5.216;2023-06-10T09:45:08;11.70;;;5.00;;
54271;SDS011;40184;53.362;5.216;2023-06-10T09:47:34;11.43;;;4.72;;
54271;SDS011;40184;53.362;5.216;2023-06-10T09:50:00;15.25;;;4.55;;
54271;SDS011;40184;53.362;5.216;2023-06-10T09:52:27;9.57;;;4.63;;
54271;SDS011;40184;53.362;5.216;2023-06-10T09:54:58;13.88;;;4.78;;
54271;SDS011;40184;53.362;5.216;2023-06-10T09:57:25;18.60;;;4.28;;
54271;SDS011;40184;53.362;5.216;2023-06-10T09:59:54;12.30;;;4.47;;
54271;SDS011;40184;53.362;5.216;2023-06-10T10:02:20;8.68;;;4.15;;
54271;SDS011;40184;53.362;5.216;2023-06-10T10:04:46;10.88;;;4.80;;
54271;SDS011;40184;53.362;5.216;2023-06-10T10:07:12;15.27;;;4.82;;
54271;SDS011;40184;53.362;5.216;2023-06-10T10:09:39;15.75;;;5.53;;
54271;SDS011;40184;53.362;5.216;2023-06-10T10:12:09;14.55;;;4.70;;
54271;SDS011;40184;53.362;5.216;2023-06-10T10:14:39;17.42;;;5.40;;
54271;SDS011;40184;53.362;5.216;2023-06-10T10:17:09;16.52;;;5.80;;
54271;SDS011;40184;53.362;5.216;2023-06-10T10:19:56;10.43;;;3.92;;
54271;SDS011;40184;53.362;5.216;2023-06-10T10:22:25;8.65;;;4.10;;
54271;SDS011;40184;53.362;5.216;2023-06-10T10:24:58;14.40;;;5.10;;
54271;SDS011;40184;53.362;5.216;2023-06-10T10:27:30;13.05;;;4.45;;
54271;SDS011;40184;53.362;5.216;2023-06-10T10:29:58;16.15;;;6.47;;
54271;SDS011;40184;53.362;5.216;2023-06-10T10:32:29;12.68;;;5.93;;
54271;SDS011;40184;53.362;5.216;2023-06-10T10:37:22;15.00;;;5.38;;
54271;SDS011;40184;53.362;5.216;2023-06-10T10:39:48;11.77;;;4.75;;
54271;SDS011;40184;53.362;5.216;2023-06-10T10:42:15;16.20;;;4.80;;
54271;SDS011;40184;53.362;5.216;2023-06-10T10:44:41;21.77;;;5.85;;
54271;SDS011;40184;53.362;5.216;2023-06-10T10:47:08;12.45;;;5.18;;
54271;SDS011;40184;53.362;5.216;2023-06-10T10:49:35;15.55;;;5.38;;
54271;SDS011;40184;53.362;5.216;2023-06-10T10:52:03;12.90;;;5.38;;
54271;SDS011;40184;53.362;5.216;2023-06-10T10:54:33;13.18;;;4.97;;
54271;SDS011;40184;53.362;5.216;2023-06-10T10:59:54;14.70;;;5.20;;
54271;SDS011;40184;53.362;5.216;2023-06-10T11:02:33;14.02;;;5.72;;
54271;SDS011;40184;53.362;5.216;2023-06-10T11:05:00;18.60;;;6.18;;
54271;SDS011;40184;53.362;5.216;2023-06-10T11:07:28;14.75;;;5.20;;
54271;SDS011;40184;53.362;5.216;2023-06-10T11:09:58;17.63;;;6.43;;
54271;SDS011;40184;53.362;5.216;2023-06-10T11:12:25;19.35;;;7.07;;
54271;SDS011;40184;53.362;5.216;2023-06-10T11:14:54;13.88;;;5.53;;
54271;SDS011;40184;53.362;5.216;2023-06-10T11:17:21;14.48;;;5.13;;
54271;SDS011;40184;53.362;5.216;2023-06-10T11:19:48;20.38;;;6.18;;
54271;SDS011;40184;53.362;5.216;2023-06-10T11:22:17;15.38;;;5.90;;
54271;SDS011;40184;53.362;5.216;2023-06-10T11:24:50;20.25;;;6.90;;
54271;SDS011;40184;53.362;5.216;2023-06-10T11:27:17;24.45;;;6.30;;
54271;SDS011;40184;53.362;5.216;2023-06-10T11:30:25;16.63;;;6.90;;
54271;SDS011;40184;53.362;5.216;2023-06-10T11:32:33;19.63;;;6.65;;
54271;SDS011;40184;53.362;5.216;2023-06-10T11:35:00;15.52;;;6.65;;
54271;SDS011;40184;53.362;5.216;2023-06-10T11:37:28;15.43;;;6.78;;
54271;SDS011;40184;53.362;5.216;2023-06-10T11:39:54;15.50;;;6.07;;
54271;SDS011;40184;53.362;5.216;2023-06-10T11:42:23;17.02;;;6.13;;
54271;SDS011;40184;53.362;5.216;2023-06-10T11:44:50;16.88;;;7.60;;
54271;SDS011;40184;53.362;5.216;2023-06-10T11:47:17;14.77;;;6.63;;
54271;SDS011;40184;53.362;5.216;2023-06-10T11:49:44;16.80;;;6.75;;
54271;SDS011;40184;53.362;5.216;2023-06-10T11:52:10;18.50;;;7.05;;
54271;SDS011;40184;53.362;5.216;2023-06-10T11:54:37;16.70;;;6.43;;
54271;SDS011;40184;53.362;5.216;2023-06-10T11:57:03;17.88;;;6.50;;
54271;SDS011;40184;53.362;5.216;2023-06-10T11:59:30;12.82;;;5.85;;
54271;SDS011;40184;53.362;5.216;2023-06-10T12:01:56;15.38;;;7.03;;
54271;SDS011;40184;53.362;5.216;2023-06-10T12:04:22;15.73;;;7.95;;
54271;SDS011;40184;53.362;5.216;2023-06-10T12:06:49;15.82;;;5.70;;
54271;SDS011;40184;53.362;5.216;2023-06-10T12:09:17;16.48;;;5.18;;
54271;SDS011;40184;53.362;5.216;2023-06-10T12:11:43;15.57;;;5.35;;
54271;SDS011;40184;53.362;5.216;2023-06-10T12:14:10;17.67;;;6.07;;
54271;SDS011;40184;53.362;5.216;2023-06-10T12:16:36;20.17;;;5.80;;
54271;SDS011;40184;53.362;5.216;2023-06-10T12:19:02;11.05;;;4.65;;
54271;SDS011;40184;53.362;5.216;2023-06-10T12:21:29;21.08;;;6.97;;
54271;SDS011;40184;53.362;5.216;2023-06-10T12:24:02;19.80;;;5.53;;
54271;SDS011;40184;53.362;5.216;2023-06-10T12:29:02;16.85;;;5.82;;
54271;SDS011;40184;53.362;5.216;2023-06-10T12:34:18;14.00;;;5.43;;
54271;SDS011;40184;53.362;5.216;2023-06-10T12:36:48;13.88;;;6.53;;
54271;SDS011;40184;53.362;5.216;2023-06-10T12:39:14;15.25;;;6.35;;
54271;SDS011;40184;53.362;5.216;2023-06-10T12:41:46;24.77;;;6.85;;
54271;SDS011;40184;53.362;5.216;2023-06-10T12:44:13;15.77;;;5.30;;
54271;SDS011;40184;53.362;5.216;2023-06-10T12:46:39;11.80;;;5.05;;
54271;SDS011;40184;53.362;5.216;2023-06-10T12:49:05;20.38;;;5.28;;
54271;SDS011;40184;53.362;5.216;2023-06-10T12:51:31;18.15;;;5.22;;
54271;SDS011;40184;53.362;5.216;2023-06-10T12:53:59;15.80;;;5.38;;
54271;SDS011;40184;53.362;5.216;2023-06-10T12:56:25;12.43;;;5.50;;
54271;SDS011;40184;53.362;5.216;2023-06-10T12:58:52;17.83;;;5.15;;
54271;SDS011;40184;53.362;5.216;2023-06-10T13:01:18;24.95;;;5.25;;
54271;SDS011;40184;53.362;5.216;2023-06-10T13:03:44;12.48;;;4.68;;
54271;SDS011;40184;53.362;5.216;2023-06-10T13:06:10;21.20;;;5.30;;
54271;SDS011;40184;53.362;5.216;2023-06-10T13:08:37;24.95;;;6.13;;
54271;SDS011;40184;53.362;5.216;2023-06-10T13:11:03;10.50;;;4.13;;
54271;SDS011;40184;53.362;5.216;2023-06-10T13:13:29;14.85;;;4.78;;
54271;SDS011;40184;53.362;5.216;2023-06-10T13:15:55;11.73;;;5.20;;
54271;SDS011;40184;53.362;5.216;2023-06-10T13:18:21;11.80;;;4.10;;
54271;SDS011;40184;53.362;5.216;2023-06-10T13:20:47;14.80;;;4.55;;
54271;SDS011;40184;53.362;5.216;2023-06-10T13:23:13;25.80;;;4.50;;
54271;SDS011;40184;53.362;5.216;2023-06-10T13:25:40;15.32;;;4.13;;
54271;SDS011;40184;53.362;5.216;2023-06-10T13:28:09;8.80;;;3.83;;
54271;SDS011;40184;53.362;5.216;2023-06-10T13:30:36;19.00;;;4.05;;
54271;SDS011;40184;53.362;5.216;2023-06-10T13:33:02;17.23;;;4.90;;
54271;SDS011;40184;53.362;5.216;2023-06-10T13:35:28;15.35;;;5.15;;
54271;SDS011;40184;53.362;5.216;2023-06-10T13:37:54;15.13;;;4.93;;
54271;SDS011;40184;53.362;5.216;2023-06-10T13:40:21;12.73;;;4.20;;
54271;SDS011;40184;53.362;5.216;2023-06-10T13:42:47;18.63;;;6.18;;
54271;SDS011;40184;53.362;5.216;2023-06-10T13:45:15;20.88;;;5.63;;
54271;SDS011;40184;53.362;5.216;2023-06-10T13:47:42;15.00;;;4.75;;
54271;SDS011;40184;53.362;5.216;2023-06-10T13:50:08;19.40;;;6.20;;
54271;SDS011;40184;53.362;5.216;2023-06-10T13:52:35;17.58;;;5.00;;
54271;SDS011;40184;53.362;5.216;2023-06-10T13:55:01;17.85;;;5.32;;
54271;SDS011;40184;53.362;5.216;2023-06-10T13:57:27;14.43;;;4.93;;
54271;SDS011;40184;53.362;5.216;2023-06-10T13:59:53;17.50;;;5.80;;
54271;SDS011;40184;53.362;5.216;2023-06-10T14:02:21;17.17;;;5.63;;
54271;SDS011;40184;53.362;5.216;2023-06-10T14:04:47;11.98;;;3.97;;
54271;SDS011;40184;53.362;5.216;2023-06-10T14:07:13;11.27;;;4.30;;
54271;SDS011;40184;53.362;5.216;2023-06-10T14:09:40;10.60;;;3.78;;
54271;SDS011;40184;53.362;5.216;2023-06-10T14:12:06;12.70;;;4.45;;
54271;SDS011;40184;53.362;5.216;2023-06-10T14:14:33;13.18;;;4.57;;
54271;SDS011;40184;53.362;5.216;2023-06-10T14:16:59;13.90;;;4.72;;
54271;SDS011;40184;53.362;5.216;2023-06-10T14:19:25;15.18;;;4.93;;
54271;SDS011;40184;53.362;5.216;2023-06-10T14:21:51;13.70;;;4.78;;
54271;SDS011;40184;53.362;5.216;2023-06-10T14:24:20;17.85;;;5.60;;
54271;SDS011;40184;53.362;5.216;2023-06-10T14:26:46;16.15;;;5.03;;
54271;SDS011;40184;53.362;5.216;2023-06-10T14:29:12;13.27;;;5.05;;
54271;SDS011;40184;53.362;5.216;2023-06-10T14:31:39;17.50;;;4.57;;
54271;SDS011;40184;53.362;5.216;2023-06-10T14:34:05;9.75;;;3.42;;
54271;SDS011;40184;53.362;5.216;2023-06-10T14:36:33;15.07;;;4.35;;
54271;SDS011;40184;53.362;5.216;2023-06-10T14:39:00;19.02;;;5.28;;
54271;SDS011;40184;53.362;5.216;2023-06-10T14:41:29;8.43;;;3.88;;
54271;SDS011;40184;53.362;5.216;2023-06-10T14:43:55;11.15;;;4.15;;
54271;SDS011;40184;53.362;5.216;2023-06-10T14:46:21;14.82;;;4.40;;
54271;SDS011;40184;53.362;5.216;2023-06-10T14:48:47;13.35;;;4.43;;
54271;SDS011;40184;53.362;5.216;2023-06-10T14:51:14;14.25;;;4.30;;
54271;SDS011;40184;53.362;5.216;2023-06-10T14:53:40;10.10;;;4.15;;